This is the latest recevied weather packets stored in our database for station/object OK2ILA-10. If no packets are shown the sender has not sent any weather packets the latest 1 day(s).
| Time | Temp. | Humidity | Pressure | Rain* | Wind** | Luminosity | Snow |
|---|---|---|---|---|---|---|---|
| 1778040996 | 16.67° C | 62% | 1008.2 hPa | - | - | - | - |
| 1778040400 | 16.11° C | 64% | 1008.1 hPa | - | - | - | - |
| 1778040396 | 16.11° C | 64% | 1008.1 hPa | - | - | - | - |
| 1778039800 | 14.44° C | 68% | 1008 hPa | - | - | - | - |
| 1778039796 | 14.44° C | 68% | 1008 hPa | - | - | - | - |
| 1778039200 | 13.33° C | 71% | 1007.9 hPa | - | - | - | - |
| 1778039196 | 13.33° C | 71% | 1007.9 hPa | - | - | - | - |
| 1778038599 | 12.78° C | 71% | 1007.9 hPa | - | - | - | - |
| 1778037999 | 12.78° C | 71% | 1007.8 hPa | - | - | - | - |
| 1778037995 | 12.78° C | 71% | 1007.8 hPa | - | - | - | - |
| 1778037399 | 12.78° C | 70% | 1007.7 hPa | - | - | - | - |
| 1778037395 | 12.78° C | 70% | 1007.7 hPa | - | - | - | - |
| 1778036795 | 12.78° C | 71% | 1007.8 hPa | - | - | - | - |
| 1778036199 | 13.33° C | 70% | 1007.8 hPa | - | - | - | - |
| 1778036195 | 13.33° C | 70% | 1007.8 hPa | - | - | - | - |
| 1778034998 | 13.33° C | 69% | 1007.7 hPa | - | - | - | - |
| 1778034994 | 13.33° C | 69% | 1007.7 hPa | - | - | - | - |
| 1778034398 | 13.33° C | 69% | 1007.7 hPa | - | - | - | - |
| 1778034394 | 13.33° C | 69% | 1007.7 hPa | - | - | - | - |
| 1778033798 | 13.33° C | 69% | 1007.8 hPa | - | - | - | - |
| 1778033794 | 13.33° C | 69% | 1007.8 hPa | - | - | - | - |
| 1778033193 | 13.33° C | 68% | 1007.8 hPa | - | - | - | - |
| 1778032593 | 13.33° C | 68% | 1007.8 hPa | - | - | - | - |
| 1778031997 | 13.33° C | 68% | 1007.8 hPa | - | - | - | - |
| 1778031993 | 13.33° C | 68% | 1007.8 hPa | - | - | - | - |
* Rain since midnight (hover to see other rain measurements)
** Current wind speed in m/s (hover to see current wind gust speed)